sensor_id;sensor_type;location;lat;lon;timestamp;pressure;altitude;pressure_sealevel;temperature;humidity
9899;BME280;4988;49.238;6.698;2023-04-10T00:01:00;99682.50;;;5.15;82.40
9899;BME280;4988;49.238;6.698;2023-04-10T00:03:26;99678.19;;;5.09;83.67
9899;BME280;4988;49.238;6.698;2023-04-10T00:05:52;99677.41;;;5.03;84.64
9899;BME280;4988;49.238;6.698;2023-04-10T00:08:22;99669.47;;;5.04;85.58
9899;BME280;4988;49.238;6.698;2023-04-10T00:10:47;99664.03;;;5.15;84.58
9899;BME280;4988;49.238;6.698;2023-04-10T00:13:14;99663.09;;;5.16;85.56
9899;BME280;4988;49.238;6.698;2023-04-10T00:15:40;99671.84;;;5.20;86.47
9899;BME280;4988;49.238;6.698;2023-04-10T00:18:05;99676.13;;;5.27;86.47
9899;BME280;4988;49.238;6.698;2023-04-10T00:20:31;99663.72;;;5.32;85.28
9899;BME280;4988;49.238;6.698;2023-04-10T00:22:56;99673.34;;;5.38;85.81
9899;BME280;4988;49.238;6.698;2023-04-10T00:25:21;99664.28;;;5.53;83.60
9899;BME280;4988;49.238;6.698;2023-04-10T00:27:47;99676.97;;;5.30;83.22
9899;BME280;4988;49.238;6.698;2023-04-10T00:30:12;99672.03;;;5.09;83.99
9899;BME280;4988;49.238;6.698;2023-04-10T00:32:38;99673.19;;;4.88;84.03
9899;BME280;4988;49.238;6.698;2023-04-10T00:35:03;99679.72;;;4.60;85.01
9899;BME280;4988;49.238;6.698;2023-04-10T00:37:29;99680.09;;;4.31;85.67
9899;BME280;4988;49.238;6.698;2023-04-10T00:39:54;99681.25;;;4.05;87.36
9899;BME280;4988;49.238;6.698;2023-04-10T00:42:21;99686.72;;;3.85;88.52
9899;BME280;4988;49.238;6.698;2023-04-10T00:44:46;99678.84;;;3.85;89.97
9899;BME280;4988;49.238;6.698;2023-04-10T00:47:12;99676.97;;;3.98;89.62
9899;BME280;4988;49.238;6.698;2023-04-10T00:49:38;99679.41;;;4.16;88.53
9899;BME280;4988;49.238;6.698;2023-04-10T00:52:04;99666.06;;;4.30;87.93
9899;BME280;4988;49.238;6.698;2023-04-10T00:54:30;99665.75;;;4.52;85.73
9899;BME280;4988;49.238;6.698;2023-04-10T00:56:57;99667.53;;;4.51;86.18
9899;BME280;4988;49.238;6.698;2023-04-10T00:59:22;99668.34;;;4.57;86.81
9899;BME280;4988;49.238;6.698;2023-04-10T01:01:47;99670.06;;;4.61;88.63
9899;BME280;4988;49.238;6.698;2023-04-10T01:04:13;99663.81;;;4.70;87.24
9899;BME280;4988;49.238;6.698;2023-04-10T01:11:51;99666.19;;;4.88;85.18
9899;BME280;4988;49.238;6.698;2023-04-10T01:17:17;99659.97;;;4.91;85.11
9899;BME280;4988;49.238;6.698;2023-04-10T01:25:48;99645.03;;;4.90;85.56
9899;BME280;4988;49.238;6.698;2023-04-10T01:31:07;99637.09;;;4.93;84.14
9899;BME280;4988;49.238;6.698;2023-04-10T01:33:42;99647.78;;;4.83;85.16
9899;BME280;4988;49.238;6.698;2023-04-10T01:36:12;99646.34;;;4.61;84.99
9899;BME280;4988;49.238;6.698;2023-04-10T01:38:43;99640.69;;;4.22;87.72
9899;BME280;4988;49.238;6.698;2023-04-10T01:41:09;99647.81;;;4.13;88.14
9899;BME280;4988;49.238;6.698;2023-04-10T01:43:34;99643.31;;;4.22;89.64
9899;BME280;4988;49.238;6.698;2023-04-10T01:46:02;99635.22;;;4.37;87.59
9899;BME280;4988;49.238;6.698;2023-04-10T01:48:29;99628.13;;;4.42;87.38
9899;BME280;4988;49.238;6.698;2023-04-10T01:50:55;99619.38;;;4.40;87.36
9899;BME280;4988;49.238;6.698;2023-04-10T01:53:22;99619.22;;;4.49;86.73
9899;BME280;4988;49.238;6.698;2023-04-10T01:55:49;99613.09;;;4.49;88.09
9899;BME280;4988;49.238;6.698;2023-04-10T01:58:15;99616.66;;;4.46;87.96
9899;BME280;4988;49.238;6.698;2023-04-10T02:00:42;99614.00;;;4.46;87.54
9899;BME280;4988;49.238;6.698;2023-04-10T02:03:08;99610.66;;;4.33;87.59
9899;BME280;4988;49.238;6.698;2023-04-10T02:08:35;99609.28;;;4.03;88.17
9899;BME280;4988;49.238;6.698;2023-04-10T02:11:23;99611.31;;;3.81;89.21
9899;BME280;4988;49.238;6.698;2023-04-10T02:13:54;99603.16;;;4.01;89.04
9899;BME280;4988;49.238;6.698;2023-04-10T02:16:22;99606.50;;;4.15;89.02
9899;BME280;4988;49.238;6.698;2023-04-10T02:18:48;99598.53;;;4.22;88.96
9899;BME280;4988;49.238;6.698;2023-04-10T02:21:14;99591.44;;;4.27;89.07
9899;BME280;4988;49.238;6.698;2023-04-10T02:23:40;99609.94;;;4.21;87.99
9899;BME280;4988;49.238;6.698;2023-04-10T02:26:07;99600.34;;;4.16;88.20
9899;BME280;4988;49.238;6.698;2023-04-10T02:28:32;99590.84;;;4.03;87.77
9899;BME280;4988;49.238;6.698;2023-04-10T02:30:58;99596.97;;;4.03;88.46
9899;BME280;4988;49.238;6.698;2023-04-10T02:33:23;99590.81;;;4.06;87.84
9899;BME280;4988;49.238;6.698;2023-04-10T02:35:48;99592.69;;;3.95;89.06
9899;BME280;4988;49.238;6.698;2023-04-10T02:38:14;99592.97;;;3.70;88.76
9899;BME280;4988;49.238;6.698;2023-04-10T02:40:39;99597.66;;;3.38;91.50
9899;BME280;4988;49.238;6.698;2023-04-10T02:43:05;99604.00;;;3.20;93.16
9899;BME280;4988;49.238;6.698;2023-04-10T02:45:30;99605.91;;;2.98;93.90
9899;BME280;4988;49.238;6.698;2023-04-10T02:47:57;99606.81;;;2.93;94.52
9899;BME280;4988;49.238;6.698;2023-04-10T02:50:22;99611.16;;;2.97;94.59
9899;BME280;4988;49.238;6.698;2023-04-10T02:52:48;99612.09;;;2.93;94.37
9899;BME280;4988;49.238;6.698;2023-04-10T02:55:13;99613.00;;;2.88;95.84
9899;BME280;4988;49.238;6.698;2023-04-10T02:57:39;99610.31;;;2.96;95.74
9899;BME280;4988;49.238;6.698;2023-04-10T03:00:06;99605.06;;;2.96;94.79
9899;BME280;4988;49.238;6.698;2023-04-10T03:02:32;99610.25;;;3.04;94.65
9899;BME280;4988;49.238;6.698;2023-04-10T03:04:59;99600.41;;;3.26;94.16
9899;BME280;4988;49.238;6.698;2023-04-10T03:07:24;99598.53;;;3.41;92.83
9899;BME280;4988;49.238;6.698;2023-04-10T03:09:50;99595.81;;;3.51;91.41
9899;BME280;4988;49.238;6.698;2023-04-10T03:12:15;99592.28;;;3.52;92.02
9899;BME280;4988;49.238;6.698;2023-04-10T03:14:41;99586.91;;;3.62;91.25
9899;BME280;4988;49.238;6.698;2023-04-10T03:17:06;99588.66;;;3.66;91.61
9899;BME280;4988;49.238;6.698;2023-04-10T03:19:31;99588.59;;;3.69;92.04
9899;BME280;4988;49.238;6.698;2023-04-10T03:21:56;99595.53;;;3.76;92.28
9899;BME280;4988;49.238;6.698;2023-04-10T03:24:22;99587.59;;;3.79;92.05
9899;BME280;4988;49.238;6.698;2023-04-10T03:26:47;99592.84;;;3.82;91.59
9899;BME280;4988;49.238;6.698;2023-04-10T03:29:12;99583.13;;;3.88;91.04
9899;BME280;4988;49.238;6.698;2023-04-10T03:31:42;99592.03;;;3.77;90.22
9899;BME280;4988;49.238;6.698;2023-04-10T03:34:08;99587.03;;;3.52;91.27
9899;BME280;4988;49.238;6.698;2023-04-10T03:36:33;99583.81;;;3.21;92.13
9899;BME280;4988;49.238;6.698;2023-04-10T03:38:58;99588.25;;;3.14;93.55
9899;BME280;4988;49.238;6.698;2023-04-10T03:41:24;99585.47;;;3.30;93.08
9899;BME280;4988;49.238;6.698;2023-04-10T03:43:49;99581.88;;;3.40;92.06
9899;BME280;4988;49.238;6.698;2023-04-10T03:46:15;99580.13;;;3.39;91.11
9899;BME280;4988;49.238;6.698;2023-04-10T03:48:40;99582.03;;;3.25;91.47
9899;BME280;4988;49.238;6.698;2023-04-10T03:51:06;99574.19;;;3.18;91.81
9899;BME280;4988;49.238;6.698;2023-04-10T03:53:32;99570.56;;;3.30;92.58
9899;BME280;4988;49.238;6.698;2023-04-10T03:56:00;99574.88;;;3.39;90.71
9899;BME280;4988;49.238;6.698;2023-04-10T03:58:26;99564.34;;;3.39;90.71
9899;BME280;4988;49.238;6.698;2023-04-10T04:00:51;99556.47;;;3.39;92.09
9899;BME280;4988;49.238;6.698;2023-04-10T04:03:16;99561.69;;;3.41;92.76
9899;BME280;4988;49.238;6.698;2023-04-10T04:05:42;99564.22;;;3.51;93.42
9899;BME280;4988;49.238;6.698;2023-04-10T04:08:07;99555.38;;;3.59;92.42
9899;BME280;4988;49.238;6.698;2023-04-10T04:10:32;99557.06;;;3.66;91.08
9899;BME280;4988;49.238;6.698;2023-04-10T04:12:58;99558.78;;;3.67;91.27
9899;BME280;4988;49.238;6.698;2023-04-10T04:15:23;99555.31;;;3.65;91.44
9899;BME280;4988;49.238;6.698;2023-04-10T04:17:49;99563.22;;;3.65;91.19
9899;BME280;4988;49.238;6.698;2023-04-10T04:20:14;99564.22;;;3.51;91.23
9899;BME280;4988;49.238;6.698;2023-04-10T04:22:39;99567.97;;;3.26;91.68
9899;BME280;4988;49.238;6.698;2023-04-10T04:25:06;99576.81;;;3.15;91.42
9899;BME280;4988;49.238;6.698;2023-04-10T04:27:34;99574.16;;;3.21;91.13
9899;BME280;4988;49.238;6.698;2023-04-10T04:30:00;99575.84;;;3.27;90.88
9899;BME280;4988;49.238;6.698;2023-04-10T04:32:26;99575.88;;;3.26;90.98
9899;BME280;4988;49.238;6.698;2023-04-10T04:34:52;99579.34;;;3.31;90.49
9899;BME280;4988;49.238;6.698;2023-04-10T04:37:17;99577.53;;;3.34;90.77
9899;BME280;4988;49.238;6.698;2023-04-10T04:39:42;99575.84;;;3.29;91.25
9899;BME280;4988;49.238;6.698;2023-04-10T04:42:08;99580.22;;;3.28;91.15
9899;BME280;4988;49.238;6.698;2023-04-10T04:44:33;99574.88;;;3.39;89.70
9899;BME280;4988;49.238;6.698;2023-04-10T04:46:59;99573.94;;;3.45;88.84
9899;BME280;4988;49.238;6.698;2023-04-10T04:49:24;99574.00;;;3.40;89.55
9899;BME280;4988;49.238;6.698;2023-04-10T04:51:50;99579.25;;;3.40;89.80
9899;BME280;4988;49.238;6.698;2023-04-10T04:54:15;99574.06;;;3.31;90.63
9899;BME280;4988;49.238;6.698;2023-04-10T04:56:40;99575.84;;;3.30;91.33
9899;BME280;4988;49.238;6.698;2023-04-10T04:59:06;99579.38;;;3.28;91.49
9899;BME280;4988;49.238;6.698;2023-04-10T05:01:31;99577.56;;;3.31;92.63
9899;BME280;4988;49.238;6.698;2023-04-10T05:03:57;99576.69;;;3.31;91.97
9899;BME280;4988;49.238;6.698;2023-04-10T05:06:22;99577.56;;;3.33;92.50
9899;BME280;4988;49.238;6.698;2023-04-10T05:08:47;99576.63;;;3.40;92.64
9899;BME280;4988;49.238;6.698;2023-04-10T05:11:13;99573.09;;;3.40;91.30
9899;BME280;4988;49.238;6.698;2023-04-10T05:13:38;99583.72;;;3.32;91.27
9899;BME280;4988;49.238;6.698;2023-04-10T05:16:04;99579.38;;;3.25;90.53
9899;BME280;4988;49.238;6.698;2023-04-10T05:18:29;99573.31;;;3.19;90.32
9899;BME280;4988;49.238;6.698;2023-04-10T05:20:54;99578.56;;;3.16;89.77
9899;BME280;4988;49.238;6.698;2023-04-10T05:23:20;99569.09;;;3.00;89.77
9899;BME280;4988;49.238;6.698;2023-04-10T05:25:45;99581.50;;;2.79;90.76
9899;BME280;4988;49.238;6.698;2023-04-10T05:28:11;99571.97;;;2.69;91.42
9899;BME280;4988;49.238;6.698;2023-04-10T05:30:36;99580.75;;;2.62;91.80
9899;BME280;4988;49.238;6.698;2023-04-10T05:33:01;99587.69;;;2.72;92.28
9899;BME280;4988;49.238;6.698;2023-04-10T05:35:27;99590.22;;;2.84;92.90
9899;BME280;4988;49.238;6.698;2023-04-10T05:37:52;99597.19;;;2.92;92.68
9899;BME280;4988;49.238;6.698;2023-04-10T05:40:17;99590.22;;;2.84;92.24
9899;BME280;4988;49.238;6.698;2023-04-10T05:42:42;99602.44;;;2.95;92.61
9899;BME280;4988;49.238;6.698;2023-04-10T05:45:08;99599.69;;;3.12;92.20
9899;BME280;4988;49.238;6.698;2023-04-10T05:47:33;99599.50;;;3.32;91.22
9899;BME280;4988;49.238;6.698;2023-04-10T05:49:59;99602.16;;;3.30;91.49
9899;BME280;4988;49.238;6.698;2023-04-10T05:52:24;99603.78;;;3.41;92.09
9899;BME280;4988;49.238;6.698;2023-04-10T05:54:49;99608.09;;;3.49;92.41
9899;BME280;4988;49.238;6.698;2023-04-10T05:57:16;99603.59;;;3.61;91.83
9899;BME280;4988;49.238;6.698;2023-04-10T05:59:41;99613.16;;;3.71;91.65
9899;BME280;4988;49.238;6.698;2023-04-10T06:02:07;99600.81;;;3.76;91.74
9899;BME280;4988;49.238;6.698;2023-04-10T06:04:32;99605.88;;;3.92;91.78
9899;BME280;4988;49.238;6.698;2023-04-10T06:06:57;99610.13;;;4.05;90.69
9899;BME280;4988;49.238;6.698;2023-04-10T06:09:23;99610.22;;;4.00;89.92
9899;BME280;4988;49.238;6.698;2023-04-10T06:11:48;99604.13;;;3.94;90.09
9899;BME280;4988;49.238;6.698;2023-04-10T06:14:13;99612.00;;;3.97;90.30
9899;BME280;4988;49.238;6.698;2023-04-10T06:16:39;99608.38;;;4.06;90.59
9899;BME280;4988;49.238;6.698;2023-04-10T06:19:04;99604.63;;;4.24;90.02
9899;BME280;4988;49.238;6.698;2023-04-10T06:21:29;99601.75;;;4.44;90.42
9899;BME280;4988;49.238;6.698;2023-04-10T06:23:55;99603.25;;;4.62;89.66
9899;BME280;4988;49.238;6.698;2023-04-10T06:26:21;99601.38;;;4.70;89.69
9899;BME280;4988;49.238;6.698;2023-04-10T06:28:46;99600.25;;;4.87;89.59
9899;BME280;4988;49.238;6.698;2023-04-10T06:31:11;99597.38;;;5.02;88.95
9899;BME280;4988;49.238;6.698;2023-04-10T06:33:37;99600.69;;;5.13;88.33
9899;BME280;4988;49.238;6.698;2023-04-10T06:36:03;99594.38;;;5.24;87.82
9899;BME280;4988;49.238;6.698;2023-04-10T06:38:29;99592.25;;;5.44;86.68
9899;BME280;4988;49.238;6.698;2023-04-10T06:40:54;99592.03;;;5.58;85.84
9899;BME280;4988;49.238;6.698;2023-04-10T06:43:20;99590.84;;;5.73;85.08
9899;BME280;4988;49.238;6.698;2023-04-10T06:45:46;99575.66;;;5.85;85.11
9899;BME280;4988;49.238;6.698;2023-04-10T06:48:11;99578.13;;;5.92;84.30
9899;BME280;4988;49.238;6.698;2023-04-10T06:50:37;99577.97;;;6.05;84.08
9899;BME280;4988;49.238;6.698;2023-04-10T06:53:02;99585.63;;;6.17;83.87
9899;BME280;4988;49.238;6.698;2023-04-10T06:55:28;99580.94;;;6.30;83.33
9899;BME280;4988;49.238;6.698;2023-04-10T06:57:54;99575.38;;;6.42;82.49
9899;BME280;4988;49.238;6.698;2023-04-10T07:00:21;99564.56;;;6.53;81.72
9899;BME280;4988;49.238;6.698;2023-04-10T07:02:46;99556.25;;;6.69;80.97
9899;BME280;4988;49.238;6.698;2023-04-10T07:08:19;99550.31;;;6.97;79.44
9899;BME280;4988;49.238;6.698;2023-04-10T07:10:44;99552.59;;;7.11;78.17
9899;BME280;4988;49.238;6.698;2023-04-10T07:13:09;99551.53;;;7.18;77.23
9899;BME280;4988;49.238;6.698;2023-04-10T07:15:35;99549.63;;;7.24;76.48
9899;BME280;4988;49.238;6.698;2023-04-10T07:18:00;99547.63;;;7.33;76.18
9899;BME280;4988;49.238;6.698;2023-04-10T07:20:25;99544.75;;;7.42;76.37
9899;BME280;4988;49.238;6.698;2023-04-10T07:22:52;99545.28;;;7.55;76.32
9899;BME280;4988;49.238;6.698;2023-04-10T07:25:17;99551.19;;;7.66;75.71
9899;BME280;4988;49.238;6.698;2023-04-10T07:27:42;99555.97;;;7.83;74.78
9899;BME280;4988;49.238;6.698;2023-04-10T07:30:08;99548.56;;;7.96;74.00
9899;BME280;4988;49.238;6.698;2023-04-10T07:32:33;99547.28;;;8.10;74.09
9899;BME280;4988;49.238;6.698;2023-04-10T07:34:59;99546.16;;;8.18;74.70
9899;BME280;4988;49.238;6.698;2023-04-10T07:37:24;99537.75;;;8.32;73.47
9899;BME280;4988;49.238;6.698;2023-04-10T07:39:50;99534.97;;;8.37;73.54
9899;BME280;4988;49.238;6.698;2023-04-10T07:42:16;99538.91;;;8.53;72.90
9899;BME280;4988;49.238;6.698;2023-04-10T07:44:41;99533.13;;;8.69;71.65
9899;BME280;4988;49.238;6.698;2023-04-10T07:47:06;99534.56;;;8.79;71.77
9899;BME280;4988;49.238;6.698;2023-04-10T07:49:32;99530.59;;;8.93;71.68
9899;BME280;4988;49.238;6.698;2023-04-10T07:51:57;99531.66;;;9.14;70.87
9899;BME280;4988;49.238;6.698;2023-04-10T07:54:22;99534.78;;;9.27;69.06
9899;BME280;4988;49.238;6.698;2023-04-10T07:56:51;99541.34;;;9.42;69.16
9899;BME280;4988;49.238;6.698;2023-04-10T07:59:16;99533.06;;;9.51;69.57
9899;BME280;4988;49.238;6.698;2023-04-10T08:01:41;99534.38;;;9.64;69.22
9899;BME280;4988;49.238;6.698;2023-04-10T08:04:07;99529.22;;;9.84;68.37
9899;BME280;4988;49.238;6.698;2023-04-10T08:06:32;99533.00;;;10.02;66.07
9899;BME280;4988;49.238;6.698;2023-04-10T08:08:57;99531.72;;;10.12;65.62
9899;BME280;4988;49.238;6.698;2023-04-10T08:11:25;99526.91;;;10.22;64.21
9899;BME280;4988;49.238;6.698;2023-04-10T08:13:52;99518.84;;;10.25;64.70
9899;BME280;4988;49.238;6.698;2023-04-10T08:16:25;99524.47;;;10.41;64.78
9899;BME280;4988;49.238;6.698;2023-04-10T08:18:51;99521.09;;;10.58;64.82
9899;BME280;4988;49.238;6.698;2023-04-10T08:21:18;99516.78;;;10.77;62.53
9899;BME280;4988;49.238;6.698;2023-04-10T08:23:43;99511.34;;;10.81;63.05
9899;BME280;4988;49.238;6.698;2023-04-10T08:26:10;99514.53;;;10.67;63.33
9899;BME280;4988;49.238;6.698;2023-04-10T08:28:36;99514.28;;;10.73;62.93
9899;BME280;4988;49.238;6.698;2023-04-10T08:31:02;99517.50;;;10.81;61.72
9899;BME280;4988;49.238;6.698;2023-04-10T08:33:27;99512.06;;;10.84;61.88
9899;BME280;4988;49.238;6.698;2023-04-10T08:35:52;99510.91;;;10.91;61.81
9899;BME280;4988;49.238;6.698;2023-04-10T08:38:18;99503.06;;;11.09;62.01
9899;BME280;4988;49.238;6.698;2023-04-10T08:41:08;99500.06;;;11.37;59.23
9899;BME280;4988;49.238;6.698;2023-04-10T08:43:33;99503.59;;;11.58;58.79
9899;BME280;4988;49.238;6.698;2023-04-10T08:46:00;99498.63;;;11.70;57.10
9899;BME280;4988;49.238;6.698;2023-04-10T08:48:30;99498.59;;;11.90;58.26
9899;BME280;4988;49.238;6.698;2023-04-10T08:50:59;99498.50;;;12.13;56.88
9899;BME280;4988;49.238;6.698;2023-04-10T08:53:27;99497.94;;;12.44;55.40
9899;BME280;4988;49.238;6.698;2023-04-10T08:55:55;99490.09;;;12.59;55.64
9899;BME280;4988;49.238;6.698;2023-04-10T08:58:20;99483.13;;;12.74;54.67
9899;BME280;4988;49.238;6.698;2023-04-10T09:00:47;99480.56;;;12.90;53.68
9899;BME280;4988;49.238;6.698;2023-04-10T09:03:15;99480.81;;;13.02;52.53
9899;BME280;4988;49.238;6.698;2023-04-10T09:05:41;99479.34;;;13.14;51.67
9899;BME280;4988;49.238;6.698;2023-04-10T09:08:07;99467.81;;;13.30;50.19
9899;BME280;4988;49.238;6.698;2023-04-10T09:10:33;99468.44;;;13.35;51.17
9899;BME280;4988;49.238;6.698;2023-04-10T09:12:58;99462.47;;;13.47;52.60
9899;BME280;4988;49.238;6.698;2023-04-10T09:15:24;99470.97;;;13.56;50.48
9899;BME280;4988;49.238;6.698;2023-04-10T09:18:00;99463.50;;;13.62;51.28
9899;BME280;4988;49.238;6.698;2023-04-10T09:20:30;99459.94;;;13.62;50.25
9899;BME280;4988;49.238;6.698;2023-04-10T09:22:56;99457.19;;;13.63;50.39
9899;BME280;4988;49.238;6.698;2023-04-10T09:25:31;99451.69;;;13.66;50.67
9899;BME280;4988;49.238;6.698;2023-04-10T09:28:07;99453.94;;;13.74;50.84
9899;BME280;4988;49.238;6.698;2023-04-10T09:30:41;99441.16;;;13.79;52.09
9899;BME280;4988;49.238;6.698;2023-04-10T09:33:24;99445.34;;;13.51;51.04
9899;BME280;4988;49.238;6.698;2023-04-10T09:35:52;99440.69;;;13.55;51.43
9899;BME280;4988;49.238;6.698;2023-04-10T09:38:20;99440.38;;;13.44;50.40
9899;BME280;4988;49.238;6.698;2023-04-10T09:40:46;99438.63;;;13.60;50.60
9899;BME280;4988;49.238;6.698;2023-04-10T09:43:23;99438.06;;;13.71;51.38
9899;BME280;4988;49.238;6.698;2023-04-10T09:45:53;99422.88;;;13.88;51.32
9899;BME280;4988;49.238;6.698;2023-04-10T09:48:20;99433.16;;;14.11;49.77
9899;BME280;4988;49.238;6.698;2023-04-10T09:50:45;99428.25;;;14.04;50.15
9899;BME280;4988;49.238;6.698;2023-04-10T09:53:13;99429.38;;;13.99;49.30
9899;BME280;4988;49.238;6.698;2023-04-10T09:55:40;99432.56;;;14.06;49.78
9899;BME280;4988;49.238;6.698;2023-04-10T09:58:06;99439.56;;;14.09;49.76
9899;BME280;4988;49.238;6.698;2023-04-10T10:00:43;99442.41;;;14.22;48.93
9899;BME280;4988;49.238;6.698;2023-04-10T10:03:16;99440.94;;;14.16;49.40
9899;BME280;4988;49.238;6.698;2023-04-10T10:05:44;99434.09;;;14.26;48.97
9899;BME280;4988;49.238;6.698;2023-04-10T10:08:11;99425.38;;;14.55;49.10
9899;BME280;4988;49.238;6.698;2023-04-10T10:10:56;99419.94;;;14.72;49.81
9899;BME280;4988;49.238;6.698;2023-04-10T10:19:08;99417.09;;;14.90;47.54
9899;BME280;4988;49.238;6.698;2023-04-10T10:21:37;99405.31;;;14.92;46.76
9899;BME280;4988;49.238;6.698;2023-04-10T10:24:06;99412.00;;;14.85;47.15
9899;BME280;4988;49.238;6.698;2023-04-10T10:26:32;99407.59;;;14.84;47.38
9899;BME280;4988;49.238;6.698;2023-04-10T10:29:02;99414.41;;;14.90;46.15
9899;BME280;4988;49.238;6.698;2023-04-10T10:31:30;99409.16;;;15.03;46.31
9899;BME280;4988;49.238;6.698;2023-04-10T10:34:00;99407.38;;;15.03;46.46
9899;BME280;4988;49.238;6.698;2023-04-10T10:36:29;99405.09;;;15.11;46.14
9899;BME280;4988;49.238;6.698;2023-04-10T10:41:43;99394.22;;;15.43;47.04
9899;BME280;4988;49.238;6.698;2023-04-10T10:44:17;99399.88;;;15.53;47.50
9899;BME280;4988;49.238;6.698;2023-04-10T10:46:51;99395.91;;;15.73;47.25
9899;BME280;4988;49.238;6.698;2023-04-10T10:52:46;99384.22;;;15.60;44.08
9899;BME280;4988;49.238;6.698;2023-04-10T10:58:07;99367.94;;;15.49;43.74
9899;BME280;4988;49.238;6.698;2023-04-10T11:05:53;99375.69;;;15.68;44.01
9899;BME280;4988;49.238;6.698;2023-04-10T11:13:42;99355.97;;;16.11;43.68
9899;BME280;4988;49.238;6.698;2023-04-10T11:19:07;99356.34;;;16.19;44.53
9899;BME280;4988;49.238;6.698;2023-04-10T11:22:06;99345.19;;;16.25;44.77
9899;BME280;4988;49.238;6.698;2023-04-10T11:27:41;99335.25;;;16.40;44.84
9899;BME280;4988;49.238;6.698;2023-04-10T11:30:30;99327.53;;;16.61;43.97
9899;BME280;4988;49.238;6.698;2023-04-10T11:32:57;99328.63;;;16.71;44.08
9899;BME280;4988;49.238;6.698;2023-04-10T11:35:22;99323.94;;;16.88;44.59
9899;BME280;4988;49.238;6.698;2023-04-10T11:37:47;99315.97;;;16.86;44.16
9899;BME280;4988;49.238;6.698;2023-04-10T11:40:13;99313.84;;;16.92;44.41
9899;BME280;4988;49.238;6.698;2023-04-10T11:42:38;99313.13;;;17.02;44.26
9899;BME280;4988;49.238;6.698;2023-04-10T11:45:26;99313.66;;;17.08;44.30
9899;BME280;4988;49.238;6.698;2023-04-10T11:47:52;99301.03;;;17.08;45.72
9899;BME280;4988;49.238;6.698;2023-04-10T11:50:19;99312.56;;;17.10;43.08
9899;BME280;4988;49.238;6.698;2023-04-10T11:52:48;99305.88;;;16.90;42.23
9899;BME280;4988;49.238;6.698;2023-04-10T11:55:14;99307.53;;;16.93;43.13
9899;BME280;4988;49.238;6.698;2023-04-10T11:57:41;99306.75;;;17.03;43.60
9899;BME280;4988;49.238;6.698;2023-04-10T12:00:07;99304.78;;;16.80;43.13
9899;BME280;4988;49.238;6.698;2023-04-10T12:02:33;99298.38;;;16.95;44.52
9899;BME280;4988;49.238;6.698;2023-04-10T12:04:58;99306.97;;;17.00;42.89
9899;BME280;4988;49.238;6.698;2023-04-10T12:07:25;99309.88;;;17.10;43.01
9899;BME280;4988;49.238;6.698;2023-04-10T12:09:57;99305.47;;;16.96;42.46
9899;BME280;4988;49.238;6.698;2023-04-10T12:12:42;99299.19;;;16.83;42.30
9899;BME280;4988;49.238;6.698;2023-04-10T12:15:27;99294.66;;;16.70;42.97
9899;BME280;4988;49.238;6.698;2023-04-10T12:17:58;99296.16;;;16.87;43.02
9899;BME280;4988;49.238;6.698;2023-04-10T12:20:25;99296.09;;;16.89;42.77
9899;BME280;4988;49.238;6.698;2023-04-10T12:22:53;99282.84;;;16.86;43.68
9899;BME280;4988;49.238;6.698;2023-04-10T12:25:20;99281.56;;;17.04;44.16
9899;BME280;4988;49.238;6.698;2023-04-10T12:27:48;99273.06;;;17.11;44.75
9899;BME280;4988;49.238;6.698;2023-04-10T12:30:14;99272.50;;;17.31;44.25
9899;BME280;4988;49.238;6.698;2023-04-10T12:32:40;99278.97;;;17.29;44.46
9899;BME280;4988;49.238;6.698;2023-04-10T12:35:06;99276.34;;;17.40;43.93
9899;BME280;4988;49.238;6.698;2023-04-10T12:37:51;99267.00;;;17.33;42.94
9899;BME280;4988;49.238;6.698;2023-04-10T12:40:17;99268.84;;;17.32;44.46
9899;BME280;4988;49.238;6.698;2023-04-10T12:42:42;99268.84;;;17.32;42.33
9899;BME280;4988;49.238;6.698;2023-04-10T12:45:08;99271.53;;;17.19;41.62
9899;BME280;4988;49.238;6.698;2023-04-10T12:50:12;99269.09;;;17.16;41.39
9899;BME280;4988;49.238;6.698;2023-04-10T12:52:40;99267.25;;;17.17;41.42
9899;BME280;4988;49.238;6.698;2023-04-10T12:55:16;99271.47;;;17.21;41.18
9899;BME280;4988;49.238;6.698;2023-04-10T12:57:44;99273.59;;;17.16;41.29
9899;BME280;4988;49.238;6.698;2023-04-10T13:00:12;99262.94;;;17.27;41.41
9899;BME280;4988;49.238;6.698;2023-04-10T13:02:38;99258.66;;;17.12;41.07
9899;BME280;4988;49.238;6.698;2023-04-10T13:05:05;99265.22;;;17.08;42.37
9899;BME280;4988;49.238;6.698;2023-04-10T13:07:31;99254.88;;;17.14;41.65
9899;BME280;4988;49.238;6.698;2023-04-10T13:09:57;99251.09;;;17.17;43.11
9899;BME280;4988;49.238;6.698;2023-04-10T13:12:22;99234.38;;;17.38;44.54
9899;BME280;4988;49.238;6.698;2023-04-10T13:14:49;99235.22;;;17.51;43.59
9899;BME280;4988;49.238;6.698;2023-04-10T13:17:15;99233.03;;;17.56;43.58
9899;BME280;4988;49.238;6.698;2023-04-10T13:19:40;99231.75;;;17.49;43.45
9899;BME280;4988;49.238;6.698;2023-04-10T13:22:05;99221.16;;;17.34;42.99
9899;BME280;4988;49.238;6.698;2023-04-10T13:24:31;99224.31;;;17.28;43.46
9899;BME280;4988;49.238;6.698;2023-04-10T13:26:56;99225.72;;;17.21;43.71
9899;BME280;4988;49.238;6.698;2023-04-10T13:29:23;99230.28;;;17.32;44.92
9899;BME280;4988;49.238;6.698;2023-04-10T13:31:48;99220.16;;;17.35;45.03
9899;BME280;4988;49.238;6.698;2023-04-10T13:34:14;99219.78;;;17.29;44.81
9899;BME280;4988;49.238;6.698;2023-04-10T13:36:39;99215.88;;;17.33;44.83
9899;BME280;4988;49.238;6.698;2023-04-10T13:39:05;99212.28;;;17.21;44.84
9899;BME280;4988;49.238;6.698;2023-04-10T13:41:30;99220.22;;;17.10;44.95
9899;BME280;4988;49.238;6.698;2023-04-10T13:43:55;99216.28;;;17.02;45.76
9899;BME280;4988;49.238;6.698;2023-04-10T13:46:21;99209.91;;;17.03;45.58
9899;BME280;4988;49.238;6.698;2023-04-10T13:48:46;99195.81;;;17.13;45.13
9899;BME280;4988;49.238;6.698;2023-04-10T13:51:11;99195.41;;;17.06;44.95
9899;BME280;4988;49.238;6.698;2023-04-10T13:53:37;99184.34;;;16.98;45.28
9899;BME280;4988;49.238;6.698;2023-04-10T13:56:02;99178.91;;;17.11;45.95
9899;BME280;4988;49.238;6.698;2023-04-10T13:58:27;99175.78;;;17.17;46.53
9899;BME280;4988;49.238;6.698;2023-04-10T14:00:55;99174.94;;;17.16;45.92
9899;BME280;4988;49.238;6.698;2023-04-10T14:03:21;99167.50;;;17.20;46.35
9899;BME280;4988;49.238;6.698;2023-04-10T14:05:46;99164.47;;;17.25;45.91
9899;BME280;4988;49.238;6.698;2023-04-10T14:08:12;99161.47;;;17.16;46.19
9899;BME280;4988;49.238;6.698;2023-04-10T14:10:40;99160.41;;;17.19;45.96
9899;BME280;4988;49.238;6.698;2023-04-10T14:13:05;99154.97;;;17.32;45.35
9899;BME280;4988;49.238;6.698;2023-04-10T14:15:31;99140.47;;;17.22;45.68
9899;BME280;4988;49.238;6.698;2023-04-10T14:17:57;99149.31;;;17.24;45.86
9899;BME280;4988;49.238;6.698;2023-04-10T14:20:22;99144.19;;;17.32;45.81
9899;BME280;4988;49.238;6.698;2023-04-10T14:22:48;99138.81;;;17.32;45.61